sensor_id;sensor_type;location;lat;lon;timestamp;temperature;humidity
2112;DHT22;1062;52.538;13.400;2023-11-21T00:00:44;7.00;99.90
2112;DHT22;1062;52.538;13.400;2023-11-21T00:03:11;6.90;99.90
2112;DHT22;1062;52.538;13.400;2023-11-21T00:05:40;6.90;99.90
2112;DHT22;1062;52.538;13.400;2023-11-21T00:08:07;6.90;99.90
2112;DHT22;1062;52.538;13.400;2023-11-21T00:10:33;6.80;99.90
2112;DHT22;1062;52.538;13.400;2023-11-21T00:12:58;6.80;99.90
2112;DHT22;1062;52.538;13.400;2023-11-21T00:15:24;6.80;99.90
2112;DHT22;1062;52.538;13.400;2023-11-21T00:17:49;6.80;99.90
2112;DHT22;1062;52.538;13.400;2023-11-21T00:20:15;6.70;99.90
2112;DHT22;1062;52.538;13.400;2023-11-21T00:22:41;6.70;99.90
2112;DHT22;1062;52.538;13.400;2023-11-21T00:25:07;6.70;99.90
2112;DHT22;1062;52.538;13.400;2023-11-21T00:27:35;6.70;99.90
2112;DHT22;1062;52.538;13.400;2023-11-21T00:30:00;6.60;99.90
2112;DHT22;1062;52.538;13.400;2023-11-21T00:32:26;6.60;99.90
2112;DHT22;1062;52.538;13.400;2023-11-21T00:34:51;6.60;99.90
2112;DHT22;1062;52.538;13.400;2023-11-21T00:37:17;6.60;99.90
2112;DHT22;1062;52.538;13.400;2023-11-21T00:39:43;6.50;99.90
2112;DHT22;1062;52.538;13.400;2023-11-21T00:42:09;6.50;99.90
2112;DHT22;1062;52.538;13.400;2023-11-21T00:44:38;6.40;99.90
2112;DHT22;1062;52.538;13.400;2023-11-21T00:47:04;6.30;99.90
2112;DHT22;1062;52.538;13.400;2023-11-21T00:49:30;6.30;99.90
2112;DHT22;1062;52.538;13.400;2023-11-21T00:51:55;6.30;99.90
2112;DHT22;1062;52.538;13.400;2023-11-21T00:54:23;6.30;99.90
2112;DHT22;1062;52.538;13.400;2023-11-21T00:56:49;6.30;99.90
2112;DHT22;1062;52.538;13.400;2023-11-21T00:59:14;6.30;99.90
2112;DHT22;1062;52.538;13.400;2023-11-21T01:01:40;6.20;99.90
2112;DHT22;1062;52.538;13.400;2023-11-21T01:04:06;6.20;99.90
2112;DHT22;1062;52.538;13.400;2023-11-21T01:06:32;6.20;99.90
2112;DHT22;1062;52.538;13.400;2023-11-21T01:08:58;6.10;99.90
2112;DHT22;1062;52.538;13.400;2023-11-21T01:11:23;6.10;99.90
2112;DHT22;1062;52.538;13.400;2023-11-21T01:13:49;6.10;99.90
2112;DHT22;1062;52.538;13.400;2023-11-21T01:16:15;6.10;99.90
2112;DHT22;1062;52.538;13.400;2023-11-21T01:18:40;6.10;99.90
2112;DHT22;1062;52.538;13.400;2023-11-21T01:21:06;6.10;99.90
2112;DHT22;1062;52.538;13.400;2023-11-21T01:23:32;6.10;99.90
2112;DHT22;1062;52.538;13.400;2023-11-21T01:25:58;6.10;99.90
2112;DHT22;1062;52.538;13.400;2023-11-21T01:28:24;6.10;99.90
2112;DHT22;1062;52.538;13.400;2023-11-21T01:30:49;6.10;99.90
2112;DHT22;1062;52.538;13.400;2023-11-21T01:33:15;6.10;99.90
2112;DHT22;1062;52.538;13.400;2023-11-21T01:35:41;6.00;99.90
2112;DHT22;1062;52.538;13.400;2023-11-21T01:38:07;6.00;99.90
2112;DHT22;1062;52.538;13.400;2023-11-21T01:40:34;6.10;99.90
2112;DHT22;1062;52.538;13.400;2023-11-21T01:43:00;6.00;99.90
2112;DHT22;1062;52.538;13.400;2023-11-21T01:45:28;6.00;99.90
2112;DHT22;1062;52.538;13.400;2023-11-21T01:47:56;5.90;99.90
2112;DHT22;1062;52.538;13.400;2023-11-21T01:50:22;5.90;99.90
2112;DHT22;1062;52.538;13.400;2023-11-21T01:52:48;5.90;99.90
2112;DHT22;1062;52.538;13.400;2023-11-21T01:55:16;5.90;99.90
2112;DHT22;1062;52.538;13.400;2023-11-21T01:57:46;5.90;99.90
2112;DHT22;1062;52.538;13.400;2023-11-21T02:00:12;5.80;99.90
2112;DHT22;1062;52.538;13.400;2023-11-21T02:02:47;5.80;99.90
2112;DHT22;1062;52.538;13.400;2023-11-21T02:05:18;5.80;99.90
2112;DHT22;1062;52.538;13.400;2023-11-21T02:07:44;5.80;99.90
2112;DHT22;1062;52.538;13.400;2023-11-21T02:10:11;5.70;99.90
2112;DHT22;1062;52.538;13.400;2023-11-21T02:12:44;5.70;99.90
2112;DHT22;1062;52.538;13.400;2023-11-21T02:15:12;5.70;99.90
2112;DHT22;1062;52.538;13.400;2023-11-21T02:17:46;5.60;99.90
2112;DHT22;1062;52.538;13.400;2023-11-21T02:20:17;5.70;99.90
2112;DHT22;1062;52.538;13.400;2023-11-21T02:22:48;5.70;99.90
2112;DHT22;1062;52.538;13.400;2023-11-21T02:25:14;5.70;99.90
2112;DHT22;1062;52.538;13.400;2023-11-21T02:27:39;5.70;99.90
2112;DHT22;1062;52.538;13.400;2023-11-21T02:30:05;5.60;99.90
2112;DHT22;1062;52.538;13.400;2023-11-21T02:32:33;5.60;99.90
2112;DHT22;1062;52.538;13.400;2023-11-21T02:34:59;5.60;99.90
2112;DHT22;1062;52.538;13.400;2023-11-21T02:37:28;5.60;99.90
2112;DHT22;1062;52.538;13.400;2023-11-21T02:39:53;5.60;99.90
2112;DHT22;1062;52.538;13.400;2023-11-21T02:42:19;5.60;99.90
2112;DHT22;1062;52.538;13.400;2023-11-21T02:44:44;5.60;99.90
2112;DHT22;1062;52.538;13.400;2023-11-21T02:47:10;5.60;99.90
2112;DHT22;1062;52.538;13.400;2023-11-21T02:49:36;5.60;99.90
2112;DHT22;1062;52.538;13.400;2023-11-21T02:52:02;5.60;99.90
2112;DHT22;1062;52.538;13.400;2023-11-21T02:54:27;5.60;99.90
2112;DHT22;1062;52.538;13.400;2023-11-21T02:56:53;5.60;99.90
2112;DHT22;1062;52.538;13.400;2023-11-21T02:59:19;5.70;99.90
2112;DHT22;1062;52.538;13.400;2023-11-21T03:01:45;5.70;99.90
2112;DHT22;1062;52.538;13.400;2023-11-21T03:04:11;5.60;99.90
2112;DHT22;1062;52.538;13.400;2023-11-21T03:06:43;5.60;99.90
2112;DHT22;1062;52.538;13.400;2023-11-21T03:09:09;5.60;99.90
2112;DHT22;1062;52.538;13.400;2023-11-21T03:11:35;5.60;99.90
2112;DHT22;1062;52.538;13.400;2023-11-21T03:14:00;5.60;99.90
2112;DHT22;1062;52.538;13.400;2023-11-21T03:16:26;5.60;99.90
2112;DHT22;1062;52.538;13.400;2023-11-21T03:18:52;5.50;99.90
2112;DHT22;1062;52.538;13.400;2023-11-21T03:21:17;5.50;99.90
2112;DHT22;1062;52.538;13.400;2023-11-21T03:23:43;5.50;99.90
2112;DHT22;1062;52.538;13.400;2023-11-21T03:26:12;5.50;99.90
2112;DHT22;1062;52.538;13.400;2023-11-21T03:28:38;5.50;99.90
2112;DHT22;1062;52.538;13.400;2023-11-21T03:31:04;5.50;99.90
2112;DHT22;1062;52.538;13.400;2023-11-21T03:33:29;5.50;99.90
2112;DHT22;1062;52.538;13.400;2023-11-21T03:35:55;5.50;99.90
2112;DHT22;1062;52.538;13.400;2023-11-21T03:38:21;5.40;99.90
2112;DHT22;1062;52.538;13.400;2023-11-21T03:40:46;5.50;99.90
2112;DHT22;1062;52.538;13.400;2023-11-21T03:43:13;5.50;99.90
2112;DHT22;1062;52.538;13.400;2023-11-21T03:45:38;5.40;99.90
2112;DHT22;1062;52.538;13.400;2023-11-21T03:48:06;5.40;99.90
2112;DHT22;1062;52.538;13.400;2023-11-21T03:50:31;5.40;99.90
2112;DHT22;1062;52.538;13.400;2023-11-21T03:52:57;5.40;99.90
2112;DHT22;1062;52.538;13.400;2023-11-21T03:55:23;5.40;99.90
2112;DHT22;1062;52.538;13.400;2023-11-21T03:57:51;5.40;99.90
2112;DHT22;1062;52.538;13.400;2023-11-21T04:00:17;5.30;99.90
2112;DHT22;1062;52.538;13.400;2023-11-21T04:02:45;5.30;99.90
2112;DHT22;1062;52.538;13.400;2023-11-21T04:05:11;5.30;99.90
2112;DHT22;1062;52.538;13.400;2023-11-21T04:07:37;5.30;99.90
2112;DHT22;1062;52.538;13.400;2023-11-21T04:10:04;5.40;99.90
2112;DHT22;1062;52.538;13.400;2023-11-21T04:12:34;5.30;99.90
2112;DHT22;1062;52.538;13.400;2023-11-21T04:15:00;5.30;99.90
2112;DHT22;1062;52.538;13.400;2023-11-21T04:17:25;5.30;99.90
2112;DHT22;1062;52.538;13.400;2023-11-21T04:19:51;5.30;99.90
2112;DHT22;1062;52.538;13.400;2023-11-21T04:22:17;5.30;99.90
2112;DHT22;1062;52.538;13.400;2023-11-21T04:24:42;5.30;99.90
2112;DHT22;1062;52.538;13.400;2023-11-21T04:27:08;5.30;99.90
2112;DHT22;1062;52.538;13.400;2023-11-21T04:29:34;5.30;99.90
2112;DHT22;1062;52.538;13.400;2023-11-21T04:32:00;5.30;99.90
2112;DHT22;1062;52.538;13.400;2023-11-21T04:34:26;5.30;99.90
2112;DHT22;1062;52.538;13.400;2023-11-21T04:36:52;5.30;99.90
2112;DHT22;1062;52.538;13.400;2023-11-21T04:39:17;5.30;99.90
2112;DHT22;1062;52.538;13.400;2023-11-21T04:41:43;5.30;99.90
2112;DHT22;1062;52.538;13.400;2023-11-21T04:44:08;5.30;99.90
2112;DHT22;1062;52.538;13.400;2023-11-21T04:46:34;5.30;99.90
2112;DHT22;1062;52.538;13.400;2023-11-21T04:49:00;5.30;99.90
2112;DHT22;1062;52.538;13.400;2023-11-21T04:51:25;5.40;99.90
2112;DHT22;1062;52.538;13.400;2023-11-21T04:53:51;5.40;99.90
2112;DHT22;1062;52.538;13.400;2023-11-21T04:56:17;5.40;99.90
2112;DHT22;1062;52.538;13.400;2023-11-21T04:58:42;5.30;99.90
2112;DHT22;1062;52.538;13.400;2023-11-21T05:01:08;5.30;99.90
2112;DHT22;1062;52.538;13.400;2023-11-21T05:03:34;5.20;99.90
2112;DHT22;1062;52.538;13.400;2023-11-21T05:06:00;5.20;99.90
2112;DHT22;1062;52.538;13.400;2023-11-21T05:08:25;5.20;99.90
2112;DHT22;1062;52.538;13.400;2023-11-21T05:10:52;5.20;99.90
2112;DHT22;1062;52.538;13.400;2023-11-21T05:13:17;5.20;99.90
2112;DHT22;1062;52.538;13.400;2023-11-21T05:15:44;5.20;99.90
2112;DHT22;1062;52.538;13.400;2023-11-21T05:18:10;5.20;99.90
2112;DHT22;1062;52.538;13.400;2023-11-21T05:20:36;5.20;99.90
2112;DHT22;1062;52.538;13.400;2023-11-21T05:23:04;5.20;99.90
2112;DHT22;1062;52.538;13.400;2023-11-21T05:25:30;5.30;99.90
2112;DHT22;1062;52.538;13.400;2023-11-21T05:27:56;5.30;99.90
2112;DHT22;1062;52.538;13.400;2023-11-21T05:30:21;5.20;99.90
2112;DHT22;1062;52.538;13.400;2023-11-21T05:32:47;5.20;99.90
2112;DHT22;1062;52.538;13.400;2023-11-21T05:35:15;5.20;99.90
2112;DHT22;1062;52.538;13.400;2023-11-21T05:37:43;5.20;99.90
2112;DHT22;1062;52.538;13.400;2023-11-21T05:40:10;5.20;99.90
2112;DHT22;1062;52.538;13.400;2023-11-21T05:42:35;5.20;99.90
2112;DHT22;1062;52.538;13.400;2023-11-21T05:45:02;5.20;99.90
2112;DHT22;1062;52.538;13.400;2023-11-21T05:47:43;5.10;99.90
2112;DHT22;1062;52.538;13.400;2023-11-21T05:50:10;5.10;99.90
2112;DHT22;1062;52.538;13.400;2023-11-21T05:52:39;5.10;99.90
2112;DHT22;1062;52.538;13.400;2023-11-21T05:55:08;5.10;99.90
2112;DHT22;1062;52.538;13.400;2023-11-21T05:57:34;5.10;99.90
2112;DHT22;1062;52.538;13.400;2023-11-21T06:00:08;5.10;99.90
2112;DHT22;1062;52.538;13.400;2023-11-21T06:02:41;5.10;99.90
2112;DHT22;1062;52.538;13.400;2023-11-21T06:05:07;5.00;99.90
2112;DHT22;1062;52.538;13.400;2023-11-21T06:07:33;5.00;99.90
2112;DHT22;1062;52.538;13.400;2023-11-21T06:09:59;5.00;99.90
2112;DHT22;1062;52.538;13.400;2023-11-21T06:12:24;5.00;99.90
2112;DHT22;1062;52.538;13.400;2023-11-21T06:14:50;5.00;99.90
2112;DHT22;1062;52.538;13.400;2023-11-21T06:17:16;5.00;99.90
2112;DHT22;1062;52.538;13.400;2023-11-21T06:19:43;5.00;99.90
2112;DHT22;1062;52.538;13.400;2023-11-21T06:22:11;4.90;99.90
2112;DHT22;1062;52.538;13.400;2023-11-21T06:24:36;4.90;99.90
2112;DHT22;1062;52.538;13.400;2023-11-21T06:27:04;4.90;99.90
2112;DHT22;1062;52.538;13.400;2023-11-21T06:29:30;4.90;99.90
2112;DHT22;1062;52.538;13.400;2023-11-21T06:31:56;4.90;99.90
2112;DHT22;1062;52.538;13.400;2023-11-21T06:34:21;4.90;99.90
2112;DHT22;1062;52.538;13.400;2023-11-21T06:36:47;4.90;99.90
2112;DHT22;1062;52.538;13.400;2023-11-21T06:39:13;4.90;99.90
2112;DHT22;1062;52.538;13.400;2023-11-21T06:41:40;4.90;99.90
2112;DHT22;1062;52.538;13.400;2023-11-21T06:44:06;5.00;99.90
2112;DHT22;1062;52.538;13.400;2023-11-21T06:46:31;4.90;99.90
2112;DHT22;1062;52.538;13.400;2023-11-21T06:48:57;4.90;99.90
2112;DHT22;1062;52.538;13.400;2023-11-21T06:51:22;4.90;99.90
2112;DHT22;1062;52.538;13.400;2023-11-21T06:53:48;4.90;99.90
2112;DHT22;1062;52.538;13.400;2023-11-21T06:56:17;4.90;99.90
2112;DHT22;1062;52.538;13.400;2023-11-21T06:58:45;4.80;99.90
2112;DHT22;1062;52.538;13.400;2023-11-21T07:01:12;4.90;99.90
2112;DHT22;1062;52.538;13.400;2023-11-21T07:03:37;4.80;99.90
2112;DHT22;1062;52.538;13.400;2023-11-21T07:06:04;4.80;99.90
2112;DHT22;1062;52.538;13.400;2023-11-21T07:08:29;4.90;99.90
2112;DHT22;1062;52.538;13.400;2023-11-21T07:10:55;4.90;99.90
2112;DHT22;1062;52.538;13.400;2023-11-21T07:13:20;4.90;99.90
2112;DHT22;1062;52.538;13.400;2023-11-21T07:15:47;4.90;99.90
2112;DHT22;1062;52.538;13.400;2023-11-21T07:18:13;4.90;99.90
2112;DHT22;1062;52.538;13.400;2023-11-21T07:20:39;4.90;99.90
2112;DHT22;1062;52.538;13.400;2023-11-21T07:23:04;4.90;99.90
2112;DHT22;1062;52.538;13.400;2023-11-21T07:25:31;4.90;99.90
2112;DHT22;1062;52.538;13.400;2023-11-21T07:27:57;4.80;99.90
2112;DHT22;1062;52.538;13.400;2023-11-21T07:30:23;4.80;99.90
2112;DHT22;1062;52.538;13.400;2023-11-21T07:32:49;4.80;99.90
2112;DHT22;1062;52.538;13.400;2023-11-21T07:35:14;4.80;99.90
2112;DHT22;1062;52.538;13.400;2023-11-21T07:37:40;4.80;99.90
2112;DHT22;1062;52.538;13.400;2023-11-21T07:40:06;4.80;99.90
2112;DHT22;1062;52.538;13.400;2023-11-21T07:42:34;4.80;99.90
2112;DHT22;1062;52.538;13.400;2023-11-21T07:44:59;4.80;99.90
2112;DHT22;1062;52.538;13.400;2023-11-21T07:47:25;4.80;99.90
2112;DHT22;1062;52.538;13.400;2023-11-21T07:49:53;4.80;99.90
2112;DHT22;1062;52.538;13.400;2023-11-21T07:52:18;4.90;99.90
2112;DHT22;1062;52.538;13.400;2023-11-21T07:54:46;4.90;99.90
2112;DHT22;1062;52.538;13.400;2023-11-21T07:57:12;4.90;99.90
2112;DHT22;1062;52.538;13.400;2023-11-21T07:59:41;4.90;99.90
2112;DHT22;1062;52.538;13.400;2023-11-21T08:02:07;4.90;99.90
2112;DHT22;1062;52.538;13.400;2023-11-21T08:04:33;4.90;99.90
2112;DHT22;1062;52.538;13.400;2023-11-21T08:07:01;4.80;99.90
2112;DHT22;1062;52.538;13.400;2023-11-21T08:09:27;4.80;99.90
2112;DHT22;1062;52.538;13.400;2023-11-21T08:11:53;4.80;99.90
2112;DHT22;1062;52.538;13.400;2023-11-21T08:14:18;4.80;99.90
2112;DHT22;1062;52.538;13.400;2023-11-21T08:16:45;4.80;99.90
2112;DHT22;1062;52.538;13.400;2023-11-21T08:19:11;4.80;99.90
2112;DHT22;1062;52.538;13.400;2023-11-21T08:21:37;4.80;99.90
2112;DHT22;1062;52.538;13.400;2023-11-21T08:24:06;4.80;99.90
2112;DHT22;1062;52.538;13.400;2023-11-21T08:26:36;4.70;99.90
2112;DHT22;1062;52.538;13.400;2023-11-21T08:29:01;4.70;99.90
2112;DHT22;1062;52.538;13.400;2023-11-21T08:31:28;4.70;99.90
2112;DHT22;1062;52.538;13.400;2023-11-21T08:33:54;4.60;99.90
2112;DHT22;1062;52.538;13.400;2023-11-21T08:36:22;4.70;99.90
2112;DHT22;1062;52.538;13.400;2023-11-21T08:38:49;4.70;99.90
2112;DHT22;1062;52.538;13.400;2023-11-21T08:41:17;4.70;99.90
2112;DHT22;1062;52.538;13.400;2023-11-21T08:43:43;4.70;99.90
2112;DHT22;1062;52.538;13.400;2023-11-21T08:46:10;4.80;99.90
2112;DHT22;1062;52.538;13.400;2023-11-21T08:48:36;4.90;99.90
2112;DHT22;1062;52.538;13.400;2023-11-21T08:51:03;4.80;99.90
2112;DHT22;1062;52.538;13.400;2023-11-21T08:53:29;4.80;99.90
2112;DHT22;1062;52.538;13.400;2023-11-21T08:55:56;4.90;99.90
2112;DHT22;1062;52.538;13.400;2023-11-21T08:58:22;4.90;99.90
2112;DHT22;1062;52.538;13.400;2023-11-21T09:00:47;4.90;99.90
2112;DHT22;1062;52.538;13.400;2023-11-21T09:03:13;4.90;99.90
2112;DHT22;1062;52.538;13.400;2023-11-21T09:05:39;4.80;99.90
2112;DHT22;1062;52.538;13.400;2023-11-21T09:08:05;4.80;99.90
2112;DHT22;1062;52.538;13.400;2023-11-21T09:10:33;4.80;99.90
2112;DHT22;1062;52.538;13.400;2023-11-21T09:13:01;4.70;99.90
2112;DHT22;1062;52.538;13.400;2023-11-21T09:15:27;4.70;99.90
2112;DHT22;1062;52.538;13.400;2023-11-21T09:17:53;4.70;99.90
2112;DHT22;1062;52.538;13.400;2023-11-21T09:20:18;4.70;99.90
2112;DHT22;1062;52.538;13.400;2023-11-21T09:22:48;4.70;99.90
2112;DHT22;1062;52.538;13.400;2023-11-21T09:25:14;4.80;99.90
2112;DHT22;1062;52.538;13.400;2023-11-21T09:27:40;4.70;99.90
2112;DHT22;1062;52.538;13.400;2023-11-21T09:30:07;4.70;99.90
2112;DHT22;1062;52.538;13.400;2023-11-21T09:32:37;4.70;99.90
2112;DHT22;1062;52.538;13.400;2023-11-21T09:35:04;4.70;99.90
2112;DHT22;1062;52.538;13.400;2023-11-21T09:37:30;4.60;99.90
2112;DHT22;1062;52.538;13.400;2023-11-21T09:39:56;4.50;99.90
2112;DHT22;1062;52.538;13.400;2023-11-21T09:42:38;4.50;99.90
2112;DHT22;1062;52.538;13.400;2023-11-21T09:45:28;4.50;99.90
2112;DHT22;1062;52.538;13.400;2023-11-21T09:47:55;4.50;99.90
2112;DHT22;1062;52.538;13.400;2023-11-21T09:50:22;4.50;99.90
2112;DHT22;1062;52.538;13.400;2023-11-21T09:55:34;4.60;99.90
2112;DHT22;1062;52.538;13.400;2023-11-21T09:58:02;4.60;99.90
2112;DHT22;1062;52.538;13.400;2023-11-21T10:00:29;4.50;99.90
2112;DHT22;1062;52.538;13.400;2023-11-21T10:02:58;4.50;99.90
2112;DHT22;1062;52.538;13.400;2023-11-21T10:05:24;4.40;99.90
2112;DHT22;1062;52.538;13.400;2023-11-21T10:07:50;4.40;99.90
2112;DHT22;1062;52.538;13.400;2023-11-21T10:10:18;4.40;99.90
2112;DHT22;1062;52.538;13.400;2023-11-21T10:12:49;4.40;99.90
2112;DHT22;1062;52.538;13.400;2023-11-21T10:15:16;4.40;99.90
2112;DHT22;1062;52.538;13.400;2023-11-21T10:17:44;4.40;99.90
2112;DHT22;1062;52.538;13.400;2023-11-21T10:20:11;4.40;99.90
2112;DHT22;1062;52.538;13.400;2023-11-21T10:22:40;4.40;99.90
2112;DHT22;1062;52.538;13.400;2023-11-21T10:25:09;4.30;99.90
2112;DHT22;1062;52.538;13.400;2023-11-21T10:27:37;4.30;99.90
2112;DHT22;1062;52.538;13.400;2023-11-21T10:30:05;4.30;99.90
2112;DHT22;1062;52.538;13.400;2023-11-21T10:32:31;4.30;99.90
2112;DHT22;1062;52.538;13.400;2023-11-21T10:35:00;4.40;99.90
2112;DHT22;1062;52.538;13.400;2023-11-21T10:37:41;4.20;99.90
2112;DHT22;1062;52.538;13.400;2023-11-21T10:40:09;4.20;99.90
2112;DHT22;1062;52.538;13.400;2023-11-21T10:42:40;4.10;99.90
2112;DHT22;1062;52.538;13.400;2023-11-21T10:45:08;4.20;99.90
2112;DHT22;1062;52.538;13.400;2023-11-21T10:47:41;4.20;99.90
2112;DHT22;1062;52.538;13.400;2023-11-21T10:50:07;4.10;99.90
2112;DHT22;1062;52.538;13.400;2023-11-21T10:52:40;4.20;99.90
2112;DHT22;1062;52.538;13.400;2023-11-21T10:55:20;4.20;99.90
2112;DHT22;1062;52.538;13.400;2023-11-21T10:57:49;4.20;99.90
2112;DHT22;1062;52.538;13.400;2023-11-21T11:00:16;4.20;99.90
2112;DHT22;1062;52.538;13.400;2023-11-21T11:02:50;4.20;99.90
2112;DHT22;1062;52.538;13.400;2023-11-21T11:05:19;4.10;99.90
2112;DHT22;1062;52.538;13.400;2023-11-21T11:07:48;4.00;99.90
2112;DHT22;1062;52.538;13.400;2023-11-21T11:10:18;4.10;99.90
2112;DHT22;1062;52.538;13.400;2023-11-21T11:12:47;4.00;99.90
2112;DHT22;1062;52.538;13.400;2023-11-21T11:15:13;4.00;99.90
2112;DHT22;1062;52.538;13.400;2023-11-21T11:17:40;4.00;99.90
2112;DHT22;1062;52.538;13.400;2023-11-21T11:20:08;4.00;99.90
2112;DHT22;1062;52.538;13.400;2023-11-21T11:28:14;4.00;99.90
2112;DHT22;1062;52.538;13.400;2023-11-21T11:31:08;4.10;99.90
2112;DHT22;1062;52.538;13.400;2023-11-21T11:33:57;4.00;99.90
2112;DHT22;1062;52.538;13.400;2023-11-21T11:36:35;4.10;99.90
2112;DHT22;1062;52.538;13.400;2023-11-21T11:39:03;4.10;99.90
2112;DHT22;1062;52.538;13.400;2023-11-21T11:41:31;4.10;99.90
2112;DHT22;1062;52.538;13.400;2023-11-21T11:44:02;4.10;99.90
2112;DHT22;1062;52.538;13.400;2023-11-21T11:46:42;4.10;99.90
2112;DHT22;1062;52.538;13.400;2023-11-21T11:49:10;4.10;99.90
2112;DHT22;1062;52.538;13.400;2023-11-21T11:51:36;4.00;99.90
2112;DHT22;1062;52.538;13.400;2023-11-21T11:54:02;4.10;99.90
2112;DHT22;1062;52.538;13.400;2023-11-21T11:56:33;4.10;99.90
2112;DHT22;1062;52.538;13.400;2023-11-21T11:59:04;4.10;99.90
2112;DHT22;1062;52.538;13.400;2023-11-21T12:01:32;4.10;99.90
2112;DHT22;1062;52.538;13.400;2023-11-21T12:06:41;4.10;99.90
2112;DHT22;1062;52.538;13.400;2023-11-21T12:09:06;4.00;99.90
2112;DHT22;1062;52.538;13.400;2023-11-21T12:11:33;4.10;99.90
2112;DHT22;1062;52.538;13.400;2023-11-21T12:14:01;4.00;99.90
2112;DHT22;1062;52.538;13.400;2023-11-21T12:16:27;3.90;99.90
2112;DHT22;1062;52.538;13.400;2023-11-21T12:18:53;3.90;99.90
2112;DHT22;1062;52.538;13.400;2023-11-21T12:21:22;3.90;99.90
2112;DHT22;1062;52.538;13.400;2023-11-21T12:23:48;3.80;99.90
2112;DHT22;1062;52.538;13.400;2023-11-21T12:26:14;3.90;99.90
2112;DHT22;1062;52.538;13.400;2023-11-21T12:28:40;3.90;99.90
2112;DHT22;1062;52.538;13.400;2023-11-21T12:31:06;3.80;99.90
2112;DHT22;1062;52.538;13.400;2023-11-21T12:33:33;3.70;99.90
2112;DHT22;1062;52.538;13.400;2023-11-21T12:35:59;3.70;99.90
2112;DHT22;1062;52.538;13.400;2023-11-21T12:38:24;3.70;99.90
2112;DHT22;1062;52.538;13.400;2023-11-21T12:40:50;3.70;99.90
2112;DHT22;1062;52.538;13.400;2023-11-21T12:43:17;3.80;99.90
2112;DHT22;1062;52.538;13.400;2023-11-21T12:45:44;3.80;99.90
2112;DHT22;1062;52.538;13.400;2023-11-21T12:48:09;3.70;99.90
2112;DHT22;1062;52.538;13.400;2023-11-21T12:50:37;3.70;99.90
2112;DHT22;1062;52.538;13.400;2023-11-21T12:53:08;3.70;99.90
2112;DHT22;1062;52.538;13.400;2023-11-21T12:55:35;3.70;99.90
2112;DHT22;1062;52.538;13.400;2023-11-21T12:58:03;3.80;99.90
2112;DHT22;1062;52.538;13.400;2023-11-21T13:00:36;3.80;99.90
2112;DHT22;1062;52.538;13.400;2023-11-21T13:03:06;3.80;99.90
2112;DHT22;1062;52.538;13.400;2023-11-21T13:05:37;3.70;99.90
2112;DHT22;1062;52.538;13.400;2023-11-21T13:08:10;3.80;99.90
2112;DHT22;1062;52.538;13.400;2023-11-21T13:10:43;3.80;99.90
2112;DHT22;1062;52.538;13.400;2023-11-21T13:13:12;3.70;99.90
2112;DHT22;1062;52.538;13.400;2023-11-21T13:18:14;3.60;99.90
2112;DHT22;1062;52.538;13.400;2023-11-21T13:20:42;3.60;99.90
2112;DHT22;1062;52.538;13.400;2023-11-21T13:23:12;3.60;99.90
2112;DHT22;1062;52.538;13.400;2023-11-21T13:25:38;3.50;99.90
2112;DHT22;1062;52.538;13.400;2023-11-21T13:28:06;3.50;99.90
2112;DHT22;1062;52.538;13.400;2023-11-21T13:30:32;3.50;99.90
2112;DHT22;1062;52.538;13.400;2023-11-21T13:33:04;3.50;99.90
2112;DHT22;1062;52.538;13.400;2023-11-21T13:35:43;3.50;99.90
2112;DHT22;1062;52.538;13.400;2023-11-21T13:38:15;3.40;99.90
2112;DHT22;1062;52.538;13.400;2023-11-21T13:40:50;3.40;99.90
2112;DHT22;1062;52.538;13.400;2023-11-21T13:43:20;3.40;99.90
2112;DHT22;1062;52.538;13.400;2023-11-21T13:45:48;3.40;99.90
2112;DHT22;1062;52.538;13.400;2023-11-21T13:48:17;3.30;99.90
2112;DHT22;1062;52.538;13.400;2023-11-21T13:50:50;3.20;99.90
2112;DHT22;1062;52.538;13.400;2023-11-21T13:53:38;3.20;99.90
2112;DHT22;1062;52.538;13.400;2023-11-21T13:56:07;3.20;99.90
2112;DHT22;1062;52.538;13.400;2023-11-21T13:58:32;3.20;99.90
2112;DHT22;1062;52.538;13.400;2023-11-21T14:01:13;3.10;99.90
2112;DHT22;1062;52.538;13.400;2023-11-21T14:04:00;3.10;99.90
2112;DHT22;1062;52.538;13.400;2023-11-21T14:06:42;3.10;99.90
2112;DHT22;1062;52.538;13.400;2023-11-21T14:09:23;3.00;99.90
2112;DHT22;1062;52.538;13.400;2023-11-21T14:11:55;2.90;99.90
2112;DHT22;1062;52.538;13.400;2023-11-21T14:14:24;2.90;99.90
2112;DHT22;1062;52.538;13.400;2023-11-21T14:16:50;2.90;99.90
2112;DHT22;1062;52.538;13.400;2023-11-21T14:19:17;2.90;99.90
2112;DHT22;1062;52.538;13.400;2023-11-21T14:21:44;2.90;99.90
2112;DHT22;1062;52.538;13.400;2023-11-21T14:24:13;2.90;99.90
2112;DHT22;1062;52.538;13.400;2023-11-21T14:26:43;2.90;99.90
2112;DHT22;1062;52.538;13.400;2023-11-21T14:29:11;2.90;99.90
2112;DHT22;1062;52.538;13.400;2023-11-21T14:31:40;2.80;99.90
2112;DHT22;1062;52.538;13.400;2023-11-21T14:34:07;2.80;99.90
2112;DHT22;1062;52.538;13.400;2023-11-21T14:36:33;2.80;99.90
2112;DHT22;1062;52.538;13.400;2023-11-21T14:38:59;2.80;99.90
2112;DHT22;1062;52.538;13.400;2023-11-21T14:41:25;2.80;99.90
2112;DHT22;1062;52.538;13.400;2023-11-21T14:43:54;2.80;99.90
2112;DHT22;1062;52.538;13.400;2023-11-21T14:46:20;2.60;99.90
2112;DHT22;1062;52.538;13.400;2023-11-21T14:48:46;2.50;99.90
2112;DHT22;1062;52.538;13.400;2023-11-21T14:51:33;2.50;99.90
2112;DHT22;1062;52.538;13.400;2023-11-21T14:54:08;2.50;99.90
2112;DHT22;1062;52.538;13.400;2023-11-21T14:56:35;2.50;99.90
2112;DHT22;1062;52.538;13.400;2023-11-21T14:59:03;2.50;99.90
2112;DHT22;1062;52.538;13.400;2023-11-21T15:01:38;2.50;99.90
2112;DHT22;1062;52.538;13.400;2023-11-21T15:04:19;2.70;99.90
2112;DHT22;1062;52.538;13.400;2023-11-21T15:07:05;2.50;99.90
2112;DHT22;1062;52.538;13.400;2023-11-21T15:09:31;2.50;99.90
2112;DHT22;1062;52.538;13.400;2023-11-21T15:11:57;2.50;99.90
2112;DHT22;1062;52.538;13.400;2023-11-21T15:14:29;2.50;99.90
2112;DHT22;1062;52.538;13.400;2023-11-21T15:16:58;2.50;99.90
2112;DHT22;1062;52.538;13.400;2023-11-21T15:19:26;2.50;99.90
2112;DHT22;1062;52.538;13.400;2023-11-21T15:21:51;2.50;99.90
2112;DHT22;1062;52.538;13.400;2023-11-21T15:24:17;2.50;99.90
2112;DHT22;1062;52.538;13.400;2023-11-21T15:26:43;2.40;99.90
2112;DHT22;1062;52.538;13.400;2023-11-21T15:29:08;2.40;99.90
2112;DHT22;1062;52.538;13.400;2023-11-21T15:31:34;2.40;99.90
2112;DHT22;1062;52.538;13.400;2023-11-21T15:34:02;2.40;99.90
2112;DHT22;1062;52.538;13.400;2023-11-21T15:36:30;2.50;99.90
2112;DHT22;1062;52.538;13.400;2023-11-21T15:38:56;2.50;99.90
2112;DHT22;1062;52.538;13.400;2023-11-21T15:41:21;2.50;99.90
2112;DHT22;1062;52.538;13.400;2023-11-21T15:43:47;2.50;99.90
2112;DHT22;1062;52.538;13.400;2023-11-21T15:46:15;2.50;99.90
2112;DHT22;1062;52.538;13.400;2023-11-21T15:48:41;2.50;99.90
2112;DHT22;1062;52.538;13.400;2023-11-21T15:51:15;2.50;99.90
2112;DHT22;1062;52.538;13.400;2023-11-21T15:53:41;2.50;99.90
2112;DHT22;1062;52.538;13.400;2023-11-21T15:56:07;2.50;99.90
2112;DHT22;1062;52.538;13.400;2023-11-21T15:58:38;2.50;99.90
2112;DHT22;1062;52.538;13.400;2023-11-21T16:01:08;2.50;99.90
2112;DHT22;1062;52.538;13.400;2023-11-21T16:03:36;2.50;99.90
2112;DHT22;1062;52.538;13.400;2023-11-21T16:06:02;2.50;99.90
2112;DHT22;1062;52.538;13.400;2023-11-21T16:08:28;2.50;99.90
2112;DHT22;1062;52.538;13.400;2023-11-21T16:10:54;2.40;99.90
2112;DHT22;1062;52.538;13.400;2023-11-21T16:13:21;2.50;99.90
2112;DHT22;1062;52.538;13.400;2023-11-21T16:15:47;2.50;99.90
2112;DHT22;1062;52.538;13.400;2023-11-21T16:18:13;2.50;99.90